Terminal Aerodrome Forecast
Issued by NWS Wakefield, VA

Home | Current Version | Previous Version | Text Only | Print | Product List | Glossary On
Versions: 1 2 3 4 5 6 7 8 9 10 11 12
000
FTUS41 KAKQ 281720
TAFORF
TAF
KORF 281720Z 2818/2918 04009KT P6SM SCT045 SCT250
     FM282300 07006KT P6SM FEW120 SCT250
     FM290800 15003KT P6SM SCT120 BKN250
     FM291300 17003KT P6SM SCT020 BKN120=

USA.gov is the U.S. government's official web portal to all federal, state and local government web resources and services.